This is the latest recevied weather packets stored in our database for station/object Sauldorf. If no packets are shown the sender has not sent any weather packets the latest 10 day(s).
| Time | Temp. | Humidity | Pressure | Rain* | Wind** | Luminosity | Snow |
|---|---|---|---|---|---|---|---|
| 1778113929 | 5.56° C | 95% | 1010.8 hPa | 0 mm | - | - | - |
| 1778112129 | 6.11° C | 94% | 1010.7 hPa | 0 mm | - | - | - |
| 1778110329 | 6.67° C | 95% | 1010.5 hPa | 0 mm | - | - | - |
| 1778108530 | 6.67° C | 95% | 1010.5 hPa | 0 mm | - | - | - |
| 1778106729 | 6.67° C | 95% | 1010.4 hPa | 0 mm | - | - | - |
| 1778104929 | 7.22° C | 95% | 1010.1 hPa | 0 mm | - | - | - |
| 1778103130 | 7.22° C | 95% | 1010.3 hPa | 7.37 mm | - | - | - |
| 1778101330 | 7.22° C | 94% | 1010.2 hPa | 7.37 mm | - | - | - |
| 1778099531 | 7.78° C | 94% | 1009.8 hPa | 7.37 mm | - | - | - |
| 1778097730 | 8.33° C | 94% | 1010 hPa | 7.37 mm | - | - | - |
| 1778095935 | 7.78° C | 93% | 1009.7 hPa | 7.37 mm | - | - | - |
| 1778094131 | 8.33° C | 92% | 1009.2 hPa | 7.37 mm | - | - | - |
| 1778092330 | 8.33° C | 90% | 1008.9 hPa | 7.37 mm | - | - | - |
| 1778090536 | 8.33° C | 90% | 1008.7 hPa | 7.37 mm | - | - | - |
| 1778088730 | 8.89° C | 90% | 1008.2 hPa | 7.37 mm | - | - | - |
| 1778086935 | 10° C | 93% | 1007.7 hPa | 7.37 mm | - | - | - |
| 1778085130 | 9.44° C | 94% | 1007.8 hPa | 7.37 mm | - | - | - |
| 1778083330 | 8.89° C | 94% | 1007.7 hPa | 7.37 mm | - | - | - |
| 1778081531 | 8.89° C | 94% | 1007.8 hPa | 7.11 mm | - | - | - |
| 1778079730 | 8.89° C | 93% | 1007.6 hPa | 5.84 mm | - | - | - |
| 1778077930 | 9.44° C | 92% | 1007.1 hPa | 4.32 mm | - | - | - |
| 1778076131 | 11.11° C | 88% | 1006 hPa | 2.29 mm | - | - | - |
| 1778074331 | 13.33° C | 80% | 1005.7 hPa | 0.25 mm | - | - | - |
| 1778072531 | 14.44° C | 73% | 1005.5 hPa | 0.25 mm | - | - | - |
| 1778070730 | 15.56° C | 71% | 1005.5 hPa | 0.25 mm | - | - | - |
* Rain since midnight (hover to see other rain measurements)
** Current wind speed in m/s (hover to see current wind gust speed)